Time;durP1;ratioP1;P1;durP2;ratioP2;P2;SDS_P1;SDS_P2;PMS_P1;PMS_P2;Temp;Humidity;BMP_temperature;BMP_pressure;BME280_temperature;BME280_humidity;BME280_pressure;Samples;Min_cycle;Max_cycle;Signal;HPM_P1;HPM_P2
2023/10/21 00:01:59;;;;;;;3.77;1.30;;;;;;;16.23;51.71;96816.28;10440606;28;20909;-67
2023/10/21 00:07:01;;;;;;;1.20;1.20;;;;;;;15.94;51.33;96910.03;10449777;28;20239;-67
2023/10/21 00:12:04;;;;;;;2.30;1.30;;;;;;;15.63;52.59;96824.97;10456657;28;20729;-66
2023/10/21 00:17:06;;;;;;;1.20;1.20;;;;;;;16.58;50.99;96830.34;10460366;28;20235;-66
2023/10/21 00:22:08;;;;;;;1.17;1.10;;;;;;;16.36;50.93;96879.50;10467785;28;20324;-67
2023/10/21 00:27:10;;;;;;;1.00;1.00;;;;;;;15.83;51.95;96907.47;10462936;28;20231;-67
2023/10/21 00:32:11;;;;;;;1.10;1.10;;;;;;;16.91;50.24;96915.91;10473503;28;20246;-67
2023/10/21 00:37:13;;;;;;;1.30;1.23;;;;;;;15.77;51.30;96994.88;10466855;28;20771;-65
2023/10/21 00:42:15;;;;;;;1.10;1.10;;;;;;;16.07;50.29;97090.81;10468016;28;20224;-68
2023/10/21 00:47:17;;;;;;;1.20;1.20;;;;;;;17.08;48.82;96999.13;10452219;28;20574;-68
2023/10/21 00:52:19;;;;;;;1.10;1.00;;;;;;;16.06;50.65;97020.97;10462229;28;20219;-67
2023/10/21 00:57:20;;;;;;;1.03;1.03;;;;;;;16.04;50.81;97036.66;10461282;28;20238;-68
2023/10/21 01:02:22;;;;;;;1.10;1.10;;;;;;;15.61;50.47;97176.72;10462375;28;20251;-67
2023/10/21 01:07:24;;;;;;;1.47;1.20;;;;;;;15.45;50.47;97163.34;10462533;28;20873;-67
2023/10/21 01:12:26;;;;;;;1.10;1.10;;;;;;;16.19;50.12;97114.69;10460689;28;20240;-67
2023/10/21 01:17:27;;;;;;;1.10;1.10;;;;;;;16.90;49.14;97116.84;10456534;28;20946;-67
2023/10/21 01:22:30;;;;;;;1.20;1.10;;;;;;;16.58;49.75;97121.88;10444231;28;20643;-66
2023/10/21 01:27:31;;;;;;;1.10;1.10;;;;;;;16.12;50.87;97146.63;10459073;28;20236;-66
2023/10/21 01:32:33;;;;;;;1.10;1.10;;;;;;;16.90;49.62;97139.25;10458250;28;20229;-67
2023/10/21 01:37:35;;;;;;;1.20;1.20;;;;;;;15.96;51.70;97137.06;10454190;28;20235;-67
2023/10/21 01:42:40;;;;;;;3.60;1.37;;;;;;;15.96;51.72;97166.72;10438178;28;20301;-67
2023/10/21 01:47:42;;;;;;;1.37;1.23;;;;;;;16.37;50.50;97186.06;10448229;28;20285;-67
2023/10/21 01:52:44;;;;;;;1.77;1.20;;;;;;;15.40;52.43;97217.25;10455266;28;20232;-67
2023/10/21 01:57:46;;;;;;;1.30;1.20;;;;;;;16.37;50.67;97225.75;10455503;28;20903;-67
2023/10/21 02:02:52;;;;;;;0.90;0.90;;;;;;;14.83;54.10;97270.56;10457230;28;20267;-67
2023/10/21 02:07:53;;;;;;;1.00;1.00;;;;;;;15.02;54.29;97243.03;10453185;28;20403;-67
2023/10/21 02:12:55;;;;;;;1.20;1.10;;;;;;;16.59;51.28;97263.84;10455519;28;20247;-69
2023/10/21 02:17:57;;;;;;;1.40;1.30;;;;;;;16.53;51.29;97296.56;10456070;28;20350;-68
2023/10/21 02:22:58;;;;;;;1.10;1.10;;;;;;;15.93;52.33;97348.00;10455795;28;20235;-68
2023/10/21 02:28:01;;;;;;;5.60;1.20;;;;;;;16.52;51.61;97271.47;10459349;28;20830;-68
2023/10/21 02:33:03;;;;;;;1.10;1.10;;;;;;;16.03;51.59;97378.41;10455229;28;23058;-68
2023/10/21 02:38:05;;;;;;;1.33;1.20;;;;;;;16.01;51.55;97402.16;10451436;28;20734;-69
2023/10/21 02:43:07;;;;;;;1.23;1.13;;;;;;;16.92;51.17;97288.34;10457345;28;20239;-68
2023/10/21 02:48:09;;;;;;;1.10;1.00;;;;;;;17.14;49.44;97405.91;10451262;28;21294;-68
2023/10/21 02:53:11;;;;;;;1.03;1.03;;;;;;;16.31;50.72;97456.22;10450225;28;20228;-68
2023/10/21 02:58:12;;;;;;;1.10;1.10;;;;;;;17.49;48.54;97402.03;10460245;28;20233;-68
2023/10/21 03:03:14;;;;;;;1.60;1.30;;;;;;;16.62;49.57;97456.84;10452132;28;20359;-68
2023/10/21 03:08:16;;;;;;;1.00;1.00;;;;;;;16.74;49.34;97457.28;10455661;28;20247;-68
2023/10/21 03:13:18;;;;;;;1.20;1.10;;;;;;;17.42;47.30;97488.06;10460025;28;20313;-68
2023/10/21 03:18:19;;;;;;;2.00;1.20;;;;;;;17.13;48.15;97467.25;10449402;28;20757;-69
2023/10/21 03:23:21;;;;;;;1.10;1.10;;;;;;;16.96;48.45;97486.59;10454019;28;20262;-68
2023/10/21 03:28:24;;;;;;;3.83;1.20;;;;;;;17.30;47.52;97522.78;10455091;28;20346;-67
2023/10/21 03:33:27;;;;;;;1.00;1.00;;;;;;;18.03;46.07;97540.72;10438544;28;20243;-68
2023/10/21 03:38:29;;;;;;;1.67;1.13;;;;;;;17.25;48.28;97514.72;10447163;28;20249;-68
2023/10/21 03:43:31;;;;;;;1.00;1.00;;;;;;;17.14;48.68;97520.22;10448602;28;20255;-68
2023/10/21 03:48:34;;;;;;;1.10;1.10;;;;;;;18.12;47.08;97508.44;10457315;28;20242;-68
2023/10/21 03:53:35;;;;;;;1.07;1.07;;;;;;;16.95;48.79;97571.41;10471754;28;20243;-68
2023/10/21 03:58:38;;;;;;;1.30;1.20;;;;;;;17.91;47.67;97507.88;10463853;28;20329;-70
2023/10/21 04:03:40;;;;;;;1.10;1.10;;;;;;;17.93;47.73;97505.69;10448589;28;20239;-69
2023/10/21 04:08:42;;;;;;;1.43;1.20;;;;;;;18.31;46.95;97532.06;10453015;28;20632;-68
2023/10/21 04:13:43;;;;;;;1.30;1.20;;;;;;;18.04;47.38;97564.00;10467461;28;20238;-68
2023/10/21 04:18:45;;;;;;;1.30;1.20;;;;;;;18.64;46.16;97608.78;10460902;28;20436;-68
2023/10/21 04:23:47;;;;;;;1.23;1.10;;;;;;;17.32;49.18;97534.13;10470165;28;20230;-68
2023/10/21 04:28:49;;;;;;;1.53;1.10;;;;;;;17.73;47.70;97587.84;10459155;28;20300;-68
2023/10/21 04:33:50;;;;;;;1.10;1.10;;;;;;;16.73;48.06;97724.91;10450458;28;20239;-68
2023/10/21 04:38:52;;;;;;;1.43;1.20;;;;;;;18.36;46.46;97665.44;10457092;28;20223;-68
2023/10/21 04:43:54;;;;;;;1.13;1.10;;;;;;;18.26;46.79;97633.06;10449175;28;20326;-68
2023/10/21 04:48:55;;;;;;;1.20;1.20;;;;;;;18.04;47.02;97672.25;10452956;28;20237;-68
2023/10/21 04:53:57;;;;;;;1.73;1.30;;;;;;;17.75;48.31;97590.28;10465362;28;20384;-68
2023/10/21 04:58:59;;;;;;;1.80;1.30;;;;;;;18.49;46.79;97642.31;10458181;28;20254;-68
2023/10/21 05:04:04;;;;;;;1.87;1.20;;;;;;;16.24;50.66;97643.50;10459192;28;20271;-68
2023/10/21 05:09:06;;;;;;;3.10;1.20;;;;;;;15.76;50.68;97725.81;10461313;28;20627;-68
2023/10/21 05:14:08;;;;;;;2.20;1.20;;;;;;;16.09;50.70;97710.16;10458907;28;20239;-68
2023/10/21 05:19:09;;;;;;;1.50;1.37;;;;;;;16.16;50.79;97711.53;10454938;28;20263;-68
2023/10/21 05:24:11;;;;;;;1.67;1.20;;;;;;;14.85;53.66;97655.31;10458562;28;20314;-68
2023/10/21 05:29:13;;;;;;;2.37;1.40;;;;;;;16.84;49.97;97702.19;10452124;28;20224;-67
2023/10/21 05:34:18;;;;;;;1.37;1.27;;;;;;;17.42;49.40;97654.88;10445419;28;20319;-68
2023/10/21 05:39:22;;;;;;;1.23;1.23;;;;;;;16.48;50.67;97731.19;10456354;28;20223;-68
2023/10/21 05:44:24;;;;;;;1.30;1.30;;;;;;;17.26;48.61;97783.91;10463807;28;20239;-68
2023/10/21 05:49:45;;;;;;;1.57;1.40;;;;;;;17.41;49.42;97699.22;10459929;28;20724;-68
2023/10/21 05:54:47;;;;;;;1.33;1.30;;;;;;;18.09;48.41;97720.91;10459953;28;20600;-68
2023/10/21 05:59:48;;;;;;;3.20;1.33;;;;;;;17.92;47.73;97817.91;10457205;28;20284;-68
2023/10/21 06:04:50;;;;;;;1.47;1.47;;;;;;;18.43;47.22;97800.50;10457027;28;20301;-68
2023/10/21 06:09:53;;;;;;;1.70;1.30;;;;;;;19.66;45.35;97798.34;10457552;28;20660;-68
2023/10/21 06:14:55;;;;;;;1.70;1.60;;;;;;;18.99;45.85;97885.88;10457002;28;22117;-68
2023/10/21 06:19:57;;;;;;;2.50;1.73;;;;;;;19.18;45.22;97903.03;10458791;28;20756;-68
2023/10/21 06:24:59;;;;;;;1.90;1.70;;;;;;;19.69;45.43;97838.47;10452487;28;20626;-68
2023/10/21 06:30:01;;;;;;;1.77;1.67;;;;;;;19.78;44.52;97906.44;10452462;28;20308;-68
2023/10/21 06:35:03;;;;;;;1.63;1.53;;;;;;;19.80;44.71;97887.94;10454424;28;20251;-68
2023/10/21 06:40:06;;;;;;;2.23;1.30;;;;;;;20.18;44.47;97850.78;10455320;28;20339;-67
2023/10/21 06:45:08;;;;;;;1.50;1.40;;;;;;;18.91;45.81;97960.44;10459369;28;20227;-68
2023/10/21 06:50:11;;;;;;;1.20;1.20;;;;;;;18.04;46.79;98007.81;10457909;28;20212;-68
2023/10/21 06:55:13;;;;;;;1.40;1.30;;;;;;;17.81;48.39;97914.53;10455510;28;20257;-68
2023/10/21 07:00:16;;;;;;;1.30;1.30;;;;;;;18.51;46.77;97919.03;10460433;28;20649;-68
2023/10/21 07:05:17;;;;;;;3.00;1.53;;;;;;;18.05;48.01;97898.47;10391906;28;20857;-68
2023/10/21 07:10:19;;;;;;;1.47;1.20;;;;;;;15.83;49.97;97969.88;10417708;28;20288;-68
2023/10/21 07:15:23;;;;;;;2.30;1.67;;;;;;;17.40;47.84;97884.94;10414216;28;20255;-69
2023/10/21 07:20:30;;;;;;;2.43;1.57;;;;;;;17.67;47.32;97903.53;10414555;28;20284;-67
2023/10/21 07:25:32;;;;;;;3.23;1.70;;;;;;;17.98;46.18;97933.13;10402217;28;20232;-68
2023/10/21 07:30:34;;;;;;;1.30;1.30;;;;;;;17.67;46.60;97927.06;10420023;28;20226;-67
2023/10/21 07:35:36;;;;;;;1.57;1.40;;;;;;;18.32;45.16;97956.81;10421407;28;20231;-67
2023/10/21 07:40:37;;;;;;;1.47;1.37;;;;;;;18.41;44.60;97987.63;10426243;28;20299;-67
2023/10/21 07:45:42;;;;;;;1.43;1.30;;;;;;;17.27;46.37;97964.72;10403397;28;20605;-68
2023/10/21 07:50:51;;;;;;;3.53;1.20;;;;;;;17.16;45.85;98044.22;10419824;28;20778;-68
2023/10/21 07:55:53;;;;;;;2.00;1.03;;;;;;;18.00;45.04;98008.63;10426803;28;20236;-68
2023/10/21 08:00:55;;;;;;;1.80;1.10;;;;;;;18.61;43.95;98053.59;10423115;28;20727;-67
2023/10/21 08:05:57;;;;;;;1.13;1.10;;;;;;;18.68;43.66;98069.53;10461616;28;20227;-68
2023/10/21 08:11:00;;;;;;;2.73;1.63;;;;;;;18.46;43.95;98082.38;10466297;28;20253;-67
2023/10/21 08:16:02;;;;;;;4.63;1.50;;;;;;;19.12;43.27;98072.25;10468699;28;20227;-67
2023/10/21 08:21:05;;;;;;;1.43;1.23;;;;;;;19.29;43.24;98043.91;10468643;28;20231;-67
2023/10/21 08:26:07;;;;;;;2.33;1.73;;;;;;;18.73;43.74;98127.19;10463830;28;20231;-67
2023/10/21 08:31:09;;;;;;;2.30;1.20;;;;;;;17.55;44.50;98062.56;10461478;28;20243;-67
2023/10/21 08:36:18;;;;;;;1.33;1.23;;;;;;;17.91;43.10;98065.22;10465364;28;20922;-66
2023/10/21 08:41:20;;;;;;;1.97;1.60;;;;;;;18.02;42.17;98120.94;10458538;28;20225;-66
2023/10/21 08:46:23;;;;;;;3.67;2.30;;;;;;;18.09;42.70;98061.91;10460607;28;20309;-67
2023/10/21 08:51:26;;;;;;;1.33;1.27;;;;;;;18.80;41.65;98089.75;10470350;28;20470;-67
2023/10/21 08:56:27;;;;;;;1.20;1.20;;;;;;;18.40;42.16;98132.19;10448214;28;20242;-68
2023/10/21 09:01:29;;;;;;;2.50;1.20;;;;;;;18.92;41.32;98121.13;10472390;28;20330;-67
2023/10/21 09:06:31;;;;;;;2.97;1.20;;;;;;;18.15;42.22;98083.53;10464959;28;20288;-65
2023/10/21 09:11:33;;;;;;;2.37;1.40;;;;;;;17.91;42.50;98111.22;10472393;28;20318;-67
2023/10/21 09:16:36;;;;;;;1.33;1.20;;;;;;;17.76;43.60;98090.41;10467420;28;20274;-67
2023/10/21 09:21:44;;;;;;;1.30;1.20;;;;;;;18.62;42.25;98117.50;10474957;28;20231;-67
2023/10/21 09:26:47;;;;;;;1.47;1.30;;;;;;;17.82;42.47;98137.22;10471718;28;20238;-67
2023/10/21 09:31:53;;;;;;;1.40;1.30;;;;;;;19.00;40.97;98099.69;10471157;28;20242;-66
2023/10/21 09:37:06;;;;;;;2.00;1.20;;;;;;;19.27;40.44;98130.97;10472444;28;20259;-66
2023/10/21 09:42:08;;;;;;;2.50;1.30;;;;;;;18.84;41.16;98119.81;10471210;28;20745;-69
2023/10/21 09:47:14;;;;;;;1.30;1.20;;;;;;;19.28;40.27;98134.47;10451293;28;20244;-66
2023/10/21 09:52:23;;;;;;;2.50;1.30;;;;;;;18.20;41.34;98170.97;10474632;28;20232;-67
2023/10/21 09:57:25;;;;;;;1.77;1.17;;;;;;;18.59;39.92;98185.75;10468856;28;20240;-67
2023/10/21 10:02:27;;;;;;;4.10;1.40;;;;;;;18.81;39.77;98199.78;10469023;28;20250;-68
2023/10/21 10:07:30;;;;;;;1.70;1.57;;;;;;;18.30;40.64;98153.91;10463373;28;20949;-66
2023/10/21 10:12:45;;;;;;;1.60;1.50;;;;;;;19.16;40.16;98113.94;10465230;28;20231;-67
2023/10/21 10:17:50;;;;;;;1.23;1.13;;;;;;;19.73;39.43;98076.34;10460747;28;20373;-66
2023/10/21 10:23:08;;;;;;;1.37;1.20;;;;;;;17.72;41.46;98160.47;10472405;28;20366;-68
2023/10/21 10:28:21;;;;;;;1.80;1.40;;;;;;;18.13;40.25;98143.34;10462009;28;20235;-68
2023/10/21 10:33:25;;;;;;;2.90;1.43;;;;;;;19.89;38.70;98144.03;10458687;28;20281;-65
2023/10/21 10:38:31;;;;;;;2.73;1.30;;;;;;;20.01;38.31;98157.22;10466026;28;20223;-65
2023/10/21 10:43:33;;;;;;;1.20;1.10;;;;;;;18.39;39.95;98157.69;10461146;28;20234;-68
2023/10/21 10:48:35;;;;;;;1.13;1.13;;;;;;;19.50;38.91;98105.03;10451175;28;20231;-65
2023/10/21 10:53:37;;;;;;;1.80;1.70;;;;;;;20.57;37.28;98113.16;10440037;28;20327;-65
2023/10/21 10:58:38;;;;;;;1.70;1.03;;;;;;;19.53;39.09;98092.78;10458359;28;20333;-65
2023/10/21 11:06:12;;;;;;;1.50;1.40;;;;;;;16.97;43.96;98030.41;10572900;27;20846;-67
2023/10/21 11:11:14;;;;;;;2.53;1.33;;;;;;;16.61;43.63;98051.94;10450830;28;20991;-67
2023/10/21 11:16:15;;;;;;;1.40;1.30;;;;;;;16.94;43.34;98042.53;10424123;28;20231;-67
2023/10/21 11:21:17;;;;;;;1.43;1.30;;;;;;;16.49;43.49;98060.28;10437989;28;20698;-67
2023/10/21 11:26:19;;;;;;;1.27;1.10;;;;;;;17.21;42.64;98038.78;10454082;28;20232;-67
2023/10/21 11:31:21;;;;;;;1.30;1.20;;;;;;;16.24;42.86;98082.53;10427810;28;20238;-67
2023/10/21 11:36:25;;;;;;;2.80;1.43;;;;;;;16.02;42.15;98058.44;10436187;28;20227;-67
2023/10/21 11:41:27;;;;;;;1.77;1.30;;;;;;;16.52;41.71;98072.44;10422581;28;20271;-67
2023/10/21 11:46:29;;;;;;;1.73;1.23;;;;;;;16.29;41.09;98084.50;10421646;28;21887;-67
2023/10/21 11:51:32;;;;;;;2.87;1.50;;;;;;;15.97;41.03;98147.44;10427627;28;20324;-68
2023/10/21 11:56:57;;;;;;;2.87;1.67;;;;;;;17.53;39.78;98086.38;10424947;28;20628;-67
2023/10/21 12:13:19;;;;;;;2.30;1.50;;;;;;;17.15;39.83;98112.84;10429268;28;20307;-67
2023/10/21 12:44:36;;;;;;;2.57;1.30;;;;;;;16.48;39.95;98114.53;10402911;28;20753;-67
2023/10/21 12:49:43;;;;;;;1.90;1.30;;;;;;;17.73;39.18;98124.22;10396852;28;20235;-67
2023/10/21 12:54:45;;;;;;;4.40;1.43;;;;;;;17.53;40.84;98094.47;10398174;28;21118;-67
2023/10/21 12:59:46;;;;;;;2.27;1.30;;;;;;;16.61;42.24;98168.03;10400776;28;20613;-66
2023/10/21 13:04:48;;;;;;;2.70;1.60;;;;;;;16.95;42.28;98092.81;10394128;28;20278;-63
2023/10/21 13:09:50;;;;;;;2.10;1.43;;;;;;;16.73;42.97;98130.81;10397300;28;20625;-67
2023/10/21 13:14:54;;;;;;;2.40;1.40;;;;;;;17.30;41.40;98122.84;10393580;28;21031;-64
2023/10/21 13:19:56;;;;;;;1.13;1.10;;;;;;;17.66;41.57;98121.00;10399198;28;20315;-68
2023/10/21 13:24:58;;;;;;;1.20;1.10;;;;;;;17.98;41.55;98081.97;10393636;28;20228;-68
2023/10/21 13:30:17;;;;;;;1.20;1.20;;;;;;;17.48;41.80;98153.97;10457627;28;20231;-66
2023/10/21 13:35:19;;;;;;;1.77;1.20;;;;;;;17.75;41.23;98061.75;10445807;28;20243;-66
2023/10/21 13:40:22;;;;;;;1.40;1.30;;;;;;;17.60;41.73;98100.41;10431835;28;20230;-66
2023/10/21 13:45:26;;;;;;;2.10;1.40;;;;;;;18.73;40.35;98043.22;10440233;28;20243;-65
2023/10/21 13:50:28;;;;;;;1.30;1.13;;;;;;;18.20;41.13;98086.22;10452724;28;20244;-65
2023/10/21 13:55:31;;;;;;;2.03;1.57;;;;;;;17.30;41.77;98136.38;10443806;28;20318;-65
2023/10/21 14:05:44;;;;;;;1.30;1.20;;;;;;;18.17;41.15;98087.59;10437976;28;20841;-65
2023/10/21 14:10:47;;;;;;;1.27;1.10;;;;;;;19.63;39.41;98079.16;10459535;28;20571;-67
2023/10/21 14:15:51;;;;;;;1.30;1.20;;;;;;;17.13;42.94;98077.97;10438665;28;20808;-67
2023/10/21 14:20:53;;;;;;;2.60;1.37;;;;;;;18.15;42.00;98051.06;10446395;28;20255;-69
2023/10/21 14:25:57;;;;;;;2.57;1.17;;;;;;;17.52;42.02;98139.63;10448252;28;20259;-65
2023/10/21 14:31:00;;;;;;;2.73;1.30;;;;;;;18.15;40.56;98108.69;10449630;28;20319;-67
2023/10/21 14:36:06;;;;;;;1.63;1.50;;;;;;;17.58;41.80;98129.63;10443747;28;20235;-66
2023/10/21 14:41:09;;;;;;;1.70;1.30;;;;;;;17.59;42.00;98116.91;10457203;28;20767;-69
2023/10/21 14:46:11;;;;;;;2.33;1.47;;;;;;;18.26;40.61;98152.81;10443459;28;20759;-66
2023/10/21 14:51:13;;;;;;;3.10;1.40;;;;;;;19.09;39.81;98121.59;10453193;28;20684;-68
2023/10/21 14:56:15;;;;;;;1.73;1.33;;;;;;;19.93;39.01;98140.47;10444808;28;20646;-70
2023/10/21 15:01:17;;;;;;;5.07;1.37;;;;;;;19.39;39.49;98125.97;10447721;28;20234;-69
2023/10/21 15:06:20;;;;;;;2.40;1.50;;;;;;;19.29;39.24;98247.28;10437471;28;20268;-71
2023/10/21 15:11:21;;;;;;;1.30;1.20;;;;;;;20.23;38.88;98209.16;10454002;28;20232;-71
2023/10/21 15:16:23;;;;;;;1.95;1.30;;;;;;;20.23;38.71;98190.16;10440550;28;20258;-72
2023/10/21 15:21:25;;;;;;;1.53;1.27;;;;;;;19.86;39.58;98183.41;10461711;28;20241;-71
2023/10/21 15:26:27;;;;;;;2.10;1.47;;;;;;;19.62;39.68;98191.50;10439418;28;20239;-70
2023/10/21 15:31:29;;;;;;;2.00;1.63;;;;;;;19.71;39.62;98165.34;10446833;28;20236;-68
2023/10/21 15:36:32;;;;;;;5.77;1.43;;;;;;;19.65;39.43;98203.66;10444002;28;20718;-68
2023/10/21 15:41:34;;;;;;;1.88;1.20;;;;;;;20.59;38.74;98180.81;10453324;28;20243;-68
2023/10/21 15:46:36;;;;;;;4.33;1.63;;;;;;;19.74;38.86;98229.13;10451454;28;20323;-70
2023/10/21 15:51:37;;;;;;;5.43;1.40;;;;;;;20.52;38.43;98219.19;10460777;28;20770;-72
2023/10/21 15:56:39;;;;;;;2.07;1.50;;;;;;;19.64;38.92;98307.88;10450858;28;20538;-71
2023/10/21 16:01:41;;;;;;;2.00;1.60;;;;;;;20.50;38.01;98265.66;10455565;28;20247;-73
2023/10/21 16:06:43;;;;;;;3.50;2.10;;;;;;;20.57;38.11;98272.66;10459239;28;20244;-71
2023/10/21 16:11:45;;;;;;;3.53;1.93;;;;;;;21.09;36.62;98279.16;10460431;28;20255;-71
2023/10/21 16:16:46;;;;;;;5.53;2.10;;;;;;;19.88;38.44;98257.22;10445022;28;20239;-72
2023/10/21 16:21:49;;;;;;;5.40;2.57;;;;;;;20.06;38.03;98215.00;10463597;28;20231;-72
2023/10/21 16:26:52;;;;;;;4.00;2.00;;;;;;;20.33;36.94;98221.00;10451547;28;20238;-71
2023/10/21 16:31:54;;;;;;;3.90;2.23;;;;;;;19.41;37.90;98277.59;10448979;28;20278;-68
2023/10/21 16:36:56;;;;;;;3.43;1.60;;;;;;;20.60;36.73;98294.63;10447993;28;20228;-68
2023/10/21 16:42:00;;;;;;;3.00;1.50;;;;;;;21.00;36.13;98272.75;10451994;28;20801;-68
2023/10/21 16:47:02;;;;;;;2.10;1.50;;;;;;;19.28;37.14;98351.41;10448857;28;20235;-68
2023/10/21 16:52:04;;;;;;;3.60;1.60;;;;;;;19.65;37.07;98279.63;10450733;28;20248;-68
2023/10/21 16:57:05;;;;;;;4.17;1.60;;;;;;;20.83;35.60;98328.41;10441600;28;20232;-67
2023/10/21 17:02:07;;;;;;;4.30;1.87;;;;;;;19.25;37.88;98322.13;10444165;28;20358;-68
2023/10/21 17:07:09;;;;;;;7.20;2.63;;;;;;;19.43;38.21;98283.53;10445145;28;20237;-67
2023/10/21 17:12:10;;;;;;;1.73;1.30;;;;;;;18.90;38.06;98292.16;10448147;28;20267;-67
2023/10/21 17:17:12;;;;;;;3.47;2.17;;;;;;;18.63;38.50;98266.22;10443440;28;20288;-66
2023/10/21 17:22:14;;;;;;;4.90;2.13;;;;;;;17.67;39.35;98308.44;10456577;28;20235;-67
2023/10/21 17:27:15;;;;;;;3.73;2.20;;;;;;;17.57;39.77;98284.84;10446269;28;20326;-66
2023/10/21 17:32:17;;;;;;;4.57;2.20;;;;;;;17.23;40.57;98268.28;10448975;28;20322;-66
2023/10/21 17:37:19;;;;;;;4.93;2.60;;;;;;;17.04;40.32;98297.63;10447038;28;20231;-66
2023/10/21 17:42:20;;;;;;;2.13;1.87;;;;;;;17.13;40.05;98293.38;10443274;28;20326;-68
2023/10/21 17:47:23;;;;;;;3.87;2.27;;;;;;;16.33;40.72;98304.19;10445552;28;20270;-65
2023/10/21 17:52:25;;;;;;;3.13;2.30;;;;;;;16.19;40.82;98249.84;10440677;28;20250;-65
2023/10/21 17:57:29;;;;;;;6.53;2.27;;;;;;;16.70;39.80;98295.28;10444971;28;20620;-66
2023/10/21 18:02:32;;;;;;;5.40;3.07;;;;;;;16.78;39.69;98301.00;10445949;28;20266;-65
2023/10/21 18:07:34;;;;;;;4.90;2.57;;;;;;;16.26;40.40;98328.72;10442104;28;20248;-65
2023/10/21 18:12:37;;;;;;;6.73;2.73;;;;;;;17.10;39.46;98273.06;10449433;28;20595;-65
2023/10/21 18:17:39;;;;;;;3.30;1.90;;;;;;;16.18;40.52;98267.09;10444685;28;20585;-65
2023/10/21 18:22:40;;;;;;;3.83;2.27;;;;;;;16.33;40.25;98306.91;10446856;28;20239;-67
2023/10/21 18:27:42;;;;;;;4.33;2.30;;;;;;;16.58;39.93;98250.41;10441615;28;20667;-65
2023/10/21 18:32:46;;;;;;;1.67;1.50;;;;;;;16.77;39.73;98303.97;10447849;28;20339;-66
2023/10/21 18:37:48;;;;;;;3.77;1.90;;;;;;;17.11;39.33;98279.31;10442666;28;20231;-66
2023/10/21 18:42:50;;;;;;;2.70;1.80;;;;;;;16.73;39.98;98302.84;10445731;28;20232;-65
2023/10/21 18:47:52;;;;;;;3.03;1.70;;;;;;;15.60;41.84;98288.44;10437659;28;20326;-66
2023/10/21 18:52:53;;;;;;;1.90;1.60;;;;;;;15.81;40.58;98340.72;10445003;28;20238;-66
2023/10/21 18:57:56;;;;;;;2.27;1.73;;;;;;;16.33;40.61;98275.34;10440047;28;20234;-66
2023/10/21 19:02:57;;;;;;;1.83;1.70;;;;;;;14.08;43.35;98379.16;10449421;28;20601;-66
2023/10/21 19:08:00;;;;;;;2.47;1.93;;;;;;;15.51;41.58;98337.38;10439655;28;20238;-66
2023/10/21 19:13:04;;;;;;;3.43;1.80;;;;;;;17.20;39.83;98298.53;10441051;28;20215;-66
2023/10/21 19:18:06;;;;;;;4.37;2.00;;;;;;;17.02;39.70;98391.66;10446007;28;20718;-66
2023/10/21 19:23:09;;;;;;;4.20;2.80;;;;;;;16.57;39.91;98463.97;10449970;28;20239;-67
2023/10/21 19:28:10;;;;;;;5.87;2.63;;;;;;;17.10;40.14;98356.84;10462029;28;20245;-67
2023/10/21 19:33:12;;;;;;;3.47;2.20;;;;;;;16.83;40.38;98383.94;10465106;28;20748;-66
2023/10/21 19:38:14;;;;;;;4.10;2.40;;;;;;;17.21;40.14;98365.00;10459481;28;20249;-66
2023/10/21 19:43:16;;;;;;;5.37;2.30;;;;;;;15.88;41.56;98473.47;10457902;28;20231;-66
2023/10/21 19:48:17;;;;;;;3.23;2.10;;;;;;;15.28;43.00;98386.94;10458870;28;20322;-66
2023/10/21 19:53:19;;;;;;;4.20;2.13;;;;;;;16.90;40.96;98349.41;10451533;28;20240;-66
2023/10/21 19:58:22;;;;;;;3.50;1.90;;;;;;;15.92;42.59;98357.78;10454541;28;20255;-67
2023/10/21 20:03:27;;;;;;;6.77;3.03;;;;;;;16.85;41.02;98408.81;10449623;28;20660;-67
2023/10/21 20:08:29;;;;;;;3.60;2.40;;;;;;;15.68;43.25;98339.22;10459713;28;20239;-67
2023/10/21 20:13:31;;;;;;;5.13;2.20;;;;;;;14.93;43.32;98498.53;10459428;28;20720;-67
2023/10/21 20:18:32;;;;;;;2.87;2.07;;;;;;;14.15;44.68;98448.94;10453669;28;20753;-66
2023/10/21 20:23:34;;;;;;;2.80;1.93;;;;;;;15.38;43.52;98350.44;10458587;28;20798;-66
2023/10/21 20:28:39;;;;;;;4.43;2.43;;;;;;;14.60;43.88;98431.97;10449909;28;20271;-66
2023/10/21 20:33:41;;;;;;;3.77;2.33;;;;;;;14.91;43.91;98357.09;10460246;28;20235;-66
2023/10/21 20:38:45;;;;;;;2.37;1.70;;;;;;;15.17;43.70;98357.44;10452057;28;20225;-67
2023/10/21 20:43:48;;;;;;;3.83;2.13;;;;;;;15.77;42.37;98433.97;10451956;28;20272;-67
2023/10/21 20:48:50;;;;;;;3.87;1.70;;;;;;;14.55;43.84;98502.69;10447403;28;20748;-67
2023/10/21 20:53:51;;;;;;;4.27;2.00;;;;;;;15.71;42.44;98419.59;10453760;28;20257;-66
2023/10/21 20:58:55;;;;;;;2.90;2.03;;;;;;;14.52;44.47;98432.38;10452404;28;20223;-66
2023/10/21 21:03:57;;;;;;;2.27;2.00;;;;;;;15.29;43.47;98382.41;10451077;28;20236;-66
2023/10/21 21:08:59;;;;;;;2.80;2.10;;;;;;;16.06;42.04;98402.16;10450549;28;20231;-66
2023/10/21 21:14:01;;;;;;;2.73;2.20;;;;;;;16.17;41.60;98455.19;10454454;28;20341;-66
2023/10/21 21:19:04;;;;;;;5.57;2.53;;;;;;;15.40;42.72;98475.78;10448742;28;20287;-68
2023/10/21 21:24:07;;;;;;;4.57;1.83;;;;;;;14.57;43.26;98570.56;10451607;28;20227;-68
2023/10/21 21:29:09;;;;;;;3.63;2.00;;;;;;;15.87;41.82;98486.13;10457739;28;20677;-68
2023/10/21 21:34:11;;;;;;;3.47;2.10;;;;;;;16.33;41.37;98436.47;10454618;28;20255;-68
2023/10/21 21:39:13;;;;;;;2.57;1.80;;;;;;;16.04;41.59;98474.47;10447272;28;20249;-66
2023/10/21 21:44:15;;;;;;;1.87;1.77;;;;;;;15.49;42.39;98486.97;10451391;28;20615;-66
2023/10/21 21:49:17;;;;;;;2.10;1.90;;;;;;;16.45;40.82;98531.63;10449787;28;20331;-66
2023/10/21 21:54:18;;;;;;;3.07;1.90;;;;;;;16.60;40.57;98566.91;10451628;28;20710;-66
2023/10/21 21:59:20;;;;;;;2.93;1.80;;;;;;;16.29;41.13;98563.03;10446802;28;20744;-67
2023/10/21 22:04:23;;;;;;;2.60;2.03;;;;;;;15.92;41.98;98535.81;10445425;28;20235;-66
2023/10/21 22:09:27;;;;;;;2.37;1.90;;;;;;;15.84;42.40;98485.81;10448150;28;20246;-66
2023/10/21 22:14:29;;;;;;;3.67;1.73;;;;;;;15.14;43.31;98496.16;10444350;28;20235;-66
2023/10/21 22:19:31;;;;;;;2.87;2.07;;;;;;;15.67;42.03;98555.97;10451433;28;20235;-67
2023/10/21 22:24:34;;;;;;;5.57;1.70;;;;;;;15.53;42.42;98493.47;10448741;28;20235;-68
2023/10/21 22:29:41;;;;;;;3.13;2.23;;;;;;;15.03;43.09;98514.06;10456099;28;20235;-67
2023/10/21 22:34:43;;;;;;;2.70;2.50;;;;;;;14.69;43.42;98538.19;10450348;28;20228;-67
2023/10/21 22:39:45;;;;;;;3.93;1.67;;;;;;;15.01;43.25;98524.22;10449229;28;20223;-68
2023/10/21 22:44:46;;;;;;;2.73;1.77;;;;;;;14.73;44.53;98438.94;10449373;28;20328;-67
2023/10/21 22:49:48;;;;;;;2.40;1.87;;;;;;;14.48;44.33;98466.25;10451766;28;20228;-67
2023/10/21 22:54:49;;;;;;;2.00;1.80;;;;;;;13.53;45.20;98557.91;10454254;28;20322;-67
2023/10/21 22:59:57;;;;;;;5.03;2.07;;;;;;;14.48;43.40;98630.41;10452244;28;20232;-67
2023/10/21 23:04:59;;;;;;;2.03;1.70;;;;;;;15.18;43.08;98502.69;10441934;28;20258;-67
2023/10/21 23:10:04;;;;;;;2.67;1.87;;;;;;;14.61;43.97;98549.38;10451254;28;20301;-68
2023/10/21 23:15:09;;;;;;;2.33;1.93;;;;;;;14.37;44.54;98554.84;10386799;28;20279;-67
2023/10/21 23:20:12;;;;;;;3.60;1.60;;;;;;;14.75;43.76;98574.13;10419982;28;20207;-67
2023/10/21 23:25:19;;;;;;;2.07;1.50;;;;;;;13.42;45.42;98675.06;10399920;28;20331;-67
2023/10/21 23:30:22;;;;;;;3.47;1.90;;;;;;;14.90;44.30;98525.94;10394212;28;20275;-68
2023/10/21 23:35:24;;;;;;;4.43;2.37;;;;;;;14.31;45.29;98507.38;10396534;28;20313;-67
2023/10/21 23:40:25;;;;;;;2.57;2.00;;;;;;;14.93;43.96;98573.13;10399287;28;20230;-66
2023/10/21 23:45:46;;;;;;;2.33;1.90;;;;;;;14.08;45.05;98653.50;10395541;28;20294;-66
2023/10/21 23:50:48;;;;;;;3.90;1.93;;;;;;;14.98;43.73;98634.34;10397434;28;20248;-66
2023/10/21 23:55:50;;;;;;;2.57;1.80;;;;;;;13.96;45.70;98621.22;10395349;28;20569;-66
